Time;durP1;ratioP1;P1;durP2;ratioP2;P2;SDS_P1;SDS_P2;PMS_P1;PMS_P2;Temp;Humidity;BMP_temperature;BMP_pressure;BME280_temperature;BME280_humidity;BME280_pressure;Samples;Min_cycle;Max_cycle;Signal;HPM_P1;HPM_P2
2022/01/03 00:00:50;;;;;;;3.78;2.10;;;9.50;99.90;;;;;;5136128;27;20122;-65
2022/01/03 00:03:56;;;;;;;;;;;9.50;99.90;;;;;;5112627;27;20070;-64
2022/01/03 00:07:21;;;;;;;5.20;2.85;;;9.40;99.90;;;;;;5118085;27;19911;-64
2022/01/03 00:10:46;;;;;;;3.90;2.10;;;9.40;99.90;;;;;;5129009;27;20145;-64
2022/01/03 00:14:12;;;;;;;4.10;2.53;;;9.50;99.90;;;;;;5133084;27;20110;-64
2022/01/03 00:17:37;;;;;;;6.07;2.72;;;9.50;99.90;;;;;;5137534;27;20062;-64
2022/01/03 00:21:02;;;;;;;8.48;2.60;;;9.50;99.90;;;;;;5135115;27;20023;-64
2022/01/03 00:24:28;;;;;;;4.55;2.90;;;9.40;99.90;;;;;;5122770;27;20491;-64
2022/01/03 00:28:01;;;;;;;3.78;1.90;;;9.40;99.90;;;;;;5124650;27;20042;-64
2022/01/03 00:31:24;;;;;;;5.97;2.17;;;9.30;99.90;;;;;;5125090;27;20040;-64
2022/01/03 00:34:50;;;;;;;6.18;2.47;;;9.30;99.90;;;;;;5111563;27;20056;-64
2022/01/03 00:38:15;;;;;;;4.95;2.15;;;9.30;99.90;;;;;;5125908;27;20126;-64
2022/01/03 00:41:40;;;;;;;3.38;1.92;;;9.30;99.90;;;;;;5124476;27;20522;-64
2022/01/03 00:45:06;;;;;;;4.07;2.03;;;9.40;99.90;;;;;;5128412;27;20090;-47
2022/01/03 00:48:31;;;;;;;5.03;2.13;;;9.40;99.90;;;;;;5120531;28;20031;-49
2022/01/03 00:51:56;;;;;;;3.47;1.70;;;9.30;99.90;;;;;;5120232;28;20487;-52
2022/01/03 00:55:22;;;;;;;4.30;2.10;;;9.30;99.90;;;;;;5109000;28;20126;-50
2022/01/03 00:58:48;;;;;;;3.67;1.92;;;9.30;99.90;;;;;;5121629;28;20039;-51
2022/01/03 01:02:13;;;;;;;3.25;1.80;;;9.40;99.90;;;;;;5105793;28;20034;-50
2022/01/03 01:05:38;;;;;;;2.85;1.77;;;9.40;99.90;;;;;;5108918;28;20063;-47
2022/01/03 01:09:03;;;;;;;6.50;1.98;;;9.40;99.90;;;;;;5125847;28;20414;-51
2022/01/03 01:12:29;;;;;;;2.08;1.40;;;9.50;99.90;;;;;;5120854;28;20066;-49
2022/01/03 01:15:54;;;;;;;5.28;1.80;;;9.50;99.90;;;;;;5123042;28;20095;-47
2022/01/03 01:19:19;;;;;;;2.97;1.98;;;9.50;99.90;;;;;;5129785;27;20038;-48
2022/01/03 01:22:45;;;;;;;2.75;1.95;;;9.50;99.90;;;;;;5131635;27;20439;-51
2022/01/03 01:29:38;;;;;;;3.03;1.90;;;9.50;99.90;;;;;;5112645;28;20575;-51
2022/01/03 01:33:02;;;;;;;3.70;2.17;;;9.50;99.90;;;;;;5127241;27;20490;-46
2022/01/03 01:36:28;;;;;;;3.88;2.00;;;9.50;99.90;;;;;;5126889;27;20027;-46
2022/01/03 01:39:53;;;;;;;4.70;2.67;;;9.50;99.90;;;;;;5125244;27;20618;-50
2022/01/03 01:43:18;;;;;;;3.75;1.90;;;9.50;99.90;;;;;;5129083;27;20047;-47
2022/01/03 01:46:44;;;;;;;5.50;2.50;;;9.50;99.90;;;;;;5128498;27;20031;-45
2022/01/03 01:50:09;;;;;;;5.20;2.38;;;9.50;99.90;;;;;;5125169;27;20634;-48
2022/01/03 01:53:34;;;;;;;3.67;2.38;;;9.40;99.90;;;;;;5112223;28;20036;-48
2022/01/03 01:56:52;;;;;;;5.10;2.22;;;9.40;99.90;;;;;;5130632;27;20106;-49
2022/01/03 02:00:20;;;;;;;4.90;2.00;;;9.30;99.90;;;;;;5125119;27;20039;-49
2022/01/03 02:03:26;;;;;;;3.47;1.85;;;9.30;99.90;;;;;;5126823;27;20039;-49
2022/01/03 02:06:20;;;;;;;2.50;1.75;;;9.30;99.90;;;;;;5128879;27;20541;-51
2022/01/03 02:09:45;;;;;;;3.78;2.65;;;9.20;99.90;;;;;;5111104;27;20046;-52
2022/01/03 02:13:11;;;;;;;3.80;2.00;;;9.20;99.90;;;;;;5132208;27;20027;-50
2022/01/03 02:16:38;;;;;;;1.80;1.50;;;9.20;99.90;;;;;;5126812;27;20024;-47
2022/01/03 02:19:22;;;;;;;4.18;2.33;;;9.20;99.90;;;;;;5113258;27;20070;-51
2022/01/03 02:21:48;;;;;;;4.30;2.08;;;9.10;99.90;;;;;;5132599;27;20050;-49
2022/01/03 02:24:14;;;;;;;5.53;2.25;;;9.10;99.90;;;;;;5130031;27;20050;-45
2022/01/03 02:26:40;;;;;;;4.85;2.03;;;9.10;99.90;;;;;;5132378;27;20015;-48
2022/01/03 02:29:06;;;;;;;3.38;2.05;;;9.10;99.90;;;;;;5129323;27;20043;-49
2022/01/03 02:31:33;;;;;;;5.70;2.08;;;9.10;99.90;;;;;;5131775;27;20015;-49
2022/01/03 02:34:01;;;;;;;5.10;1.80;;;9.00;99.90;;;;;;5130015;27;20038;-52
2022/01/03 02:36:29;;;;;;;5.05;1.60;;;9.00;99.90;;;;;;5132193;27;20394;-48
2022/01/03 02:38:54;;;;;;;2.22;1.42;;;9.00;99.90;;;;;;5131770;27;20031;-48
2022/01/03 02:41:20;;;;;;;2.15;1.10;;;9.00;99.90;;;;;;5130071;27;20087;-45
2022/01/03 02:44:26;;;;;;;1.45;1.30;;;9.00;99.90;;;;;;5127997;27;20030;-46
2022/01/03 02:47:51;;;;;;;3.33;1.40;;;9.00;99.90;;;;;;5111208;28;20036;-49
2022/01/03 02:51:16;;;;;;;2.35;1.50;;;8.90;99.90;;;;;;5128148;27;20191;-50
2022/01/03 02:54:41;;;;;;;1.60;0.90;;;8.90;99.90;;;;;;5123931;27;20032;-48
2022/01/03 02:58:10;;;;;;;1.33;1.10;;;8.90;99.90;;;;;;5131462;27;20080;-46
2022/01/03 03:01:35;;;;;;;2.72;1.08;;;8.90;99.90;;;;;;5125648;27;20689;-48
2022/01/03 03:05:09;;;;;;;2.47;1.55;;;8.90;99.90;;;;;;5126772;27;20054;-51
2022/01/03 03:08:36;;;;;;;5.65;1.48;;;8.90;99.90;;;;;;5110791;28;20415;-52
2022/01/03 03:12:00;;;;;;;3.45;1.40;;;8.90;99.90;;;;;;5129083;27;20104;-48
2022/01/03 03:15:26;;;;;;;1.77;1.48;;;8.90;99.90;;;;;;5123719;27;20516;-46
2022/01/03 03:18:51;;;;;;;2.10;1.25;;;8.80;99.90;;;;;;5125278;27;20569;-52
2022/01/03 03:22:16;;;;;;;2.00;1.10;;;8.80;99.90;;;;;;5125396;27;20042;-46
2022/01/03 03:25:42;;;;;;;1.25;0.88;;;8.80;99.90;;;;;;5117791;27;20035;-46
2022/01/03 03:29:07;;;;;;;2.15;1.17;;;8.80;99.90;;;;;;5125449;27;20094;-48
2022/01/03 03:32:32;;;;;;;1.42;0.90;;;8.80;99.90;;;;;;5124904;27;20039;-50
2022/01/03 03:35:58;;;;;;;1.80;1.10;;;8.70;99.90;;;;;;5127150;27;20045;-48
2022/01/03 03:39:24;;;;;;;2.05;1.10;;;8.70;99.90;;;;;;5125103;27;20035;-49
2022/01/03 03:42:48;;;;;;;0.63;0.60;;;8.70;99.90;;;;;;5120535;27;20030;-49
2022/01/03 03:46:14;;;;;;;1.38;1.02;;;8.60;99.90;;;;;;5121777;27;20439;-48
2022/01/03 03:49:39;;;;;;;3.65;1.10;;;8.60;99.90;;;;;;5126545;27;20042;-48
2022/01/03 03:53:04;;;;;;;1.10;0.95;;;8.70;99.90;;;;;;5110220;28;20028;-50
2022/01/03 03:56:30;;;;;;;4.53;0.80;;;8.70;99.90;;;;;;5126662;27;20035;-47
2022/01/03 03:59:55;;;;;;;2.03;1.10;;;8.70;99.90;;;;;;5110339;27;20088;-49
2022/01/03 04:03:20;;;;;;;2.65;1.00;;;8.70;99.90;;;;;;5130359;27;20517;-47
2022/01/03 04:06:46;;;;;;;1.75;0.98;;;8.80;99.90;;;;;;5126622;27;20035;-45
2022/01/03 04:10:11;;;;;;;3.88;1.42;;;8.80;99.90;;;;;;5122242;27;20047;-52
2022/01/03 04:13:36;;;;;;;1.90;1.27;;;8.80;99.90;;;;;;5109620;28;20032;-48
2022/01/03 04:17:02;;;;;;;3.35;1.50;;;8.80;99.90;;;;;;5128255;27;20063;-49
2022/01/03 04:20:27;;;;;;;3.63;1.30;;;8.80;99.90;;;;;;5122529;27;20517;-50
2022/01/03 04:23:53;;;;;;;1.95;1.55;;;8.80;99.90;;;;;;5123948;27;20035;-49
2022/01/03 04:27:18;;;;;;;2.05;1.20;;;8.80;99.90;;;;;;5128170;27;20054;-47
2022/01/03 04:30:43;;;;;;;1.73;0.90;;;8.80;99.90;;;;;;5125157;27;20540;-47
2022/01/03 04:34:09;;;;;;;3.53;1.35;;;8.90;99.90;;;;;;5125219;27;20065;-47
2022/01/03 04:37:34;;;;;;;3.05;1.30;;;8.90;99.90;;;;;;5124552;27;20031;-47
2022/01/03 04:41:00;;;;;;;2.40;1.25;;;8.90;99.90;;;;;;5108943;28;20067;-46
2022/01/03 04:44:25;;;;;;;5.38;1.40;;;8.90;99.90;;;;;;5116704;27;20042;-46
2022/01/03 04:47:50;;;;;;;2.55;0.93;;;8.90;99.90;;;;;;5120840;27;20019;-48
2022/01/03 04:51:16;;;;;;;2.17;1.00;;;8.80;99.90;;;;;;5136990;27;20053;-48
2022/01/03 04:54:41;;;;;;;2.58;0.70;;;8.80;99.90;;;;;;5129544;27;20035;-51
2022/01/03 04:58:08;;;;;;;0.70;0.50;;;8.80;99.90;;;;;;5130446;27;20561;-50
2022/01/03 05:01:32;;;;;;;2.20;0.52;;;8.70;99.90;;;;;;5108984;28;20035;-47
2022/01/03 05:04:57;;;;;;;1.02;0.50;;;8.80;99.90;;;;;;5126584;27;20033;-47
2022/01/03 05:08:22;;;;;;;0.63;0.50;;;8.70;99.90;;;;;;5131832;27;20610;-50
2022/01/03 05:11:48;;;;;;;1.48;0.50;;;8.60;99.90;;;;;;5133108;27;20126;-47
2022/01/03 05:15:13;;;;;;;1.30;0.47;;;8.60;99.90;;;;;;5140048;27;20051;-47
2022/01/03 05:18:39;;;;;;;2.55;0.50;;;8.60;99.90;;;;;;5123836;28;20031;-48
2022/01/03 05:22:04;;;;;;;0.47;0.40;;;8.60;99.90;;;;;;5129976;27;20398;-47
2022/01/03 05:25:29;;;;;;;0.68;0.20;;;8.60;99.90;;;;;;5123414;27;20031;-48
2022/01/03 05:28:55;;;;;;;0.25;0.20;;;8.60;99.90;;;;;;5129867;27;20086;-50
2022/01/03 05:32:20;;;;;;;1.20;0.30;;;8.60;99.90;;;;;;5138139;27;20036;-48
2022/01/03 05:35:45;;;;;;;0.40;0.30;;;8.60;99.90;;;;;;5126334;27;20030;-53
2022/01/03 05:39:11;;;;;;;1.15;0.30;;;8.60;99.90;;;;;;5123320;28;20077;-51
2022/01/03 05:42:36;;;;;;;0.20;0.20;;;8.60;99.90;;;;;;5130558;27;20027;-47
2022/01/03 05:46:01;;;;;;;0.47;0.28;;;8.50;99.90;;;;;;5137119;27;20122;-50
2022/01/03 05:49:27;;;;;;;0.30;0.30;;;8.50;99.90;;;;;;5131230;27;20045;-48
2022/01/03 05:52:52;;;;;;;0.40;0.38;;;8.50;99.90;;;;;;5136898;27;20041;-53
2022/01/03 05:56:18;;;;;;;0.98;0.45;;;8.50;99.90;;;;;;5122871;28;20494;-50
2022/01/03 05:59:43;;;;;;;0.10;0.10;;;8.40;99.90;;;;;;5133054;27;20037;-51
2022/01/03 06:03:08;;;;;;;0.28;0.25;;;8.40;99.90;;;;;;5132314;27;20028;-51
2022/01/03 06:06:53;;;;;;;0.38;0.30;;;8.40;99.90;;;;;;5127049;27;20041;-47
2022/01/03 06:10:09;;;;;;;0.40;0.20;;;8.40;99.90;;;;;;5124589;27;20039;-49
2022/01/03 06:13:30;;;;;;;0.55;0.30;;;8.30;99.90;;;;;;5110721;28;20031;-48
2022/01/03 06:16:56;;;;;;;4.10;0.75;;;8.30;99.90;;;;;;5125564;27;20096;-52
2022/01/03 06:20:21;;;;;;;0.30;0.20;;;8.20;99.90;;;;;;5123947;27;20386;-49
2022/01/03 06:23:46;;;;;;;1.10;0.22;;;8.20;99.90;;;;;;5125260;27;20039;-46
2022/01/03 06:27:12;;;;;;;0.10;0.10;;;8.10;99.90;;;;;;5128202;27;20486;-46
2022/01/03 06:30:37;;;;;;;2.47;0.30;;;8.10;99.90;;;;;;5127314;27;20073;-47
2022/01/03 06:34:03;;;;;;;0.30;0.30;;;8.00;99.90;;;;;;5127229;27;20399;-47
2022/01/03 06:37:28;;;;;;;0.52;0.30;;;7.90;99.90;;;;;;5129120;27;20039;-48
2022/01/03 06:40:53;;;;;;;0.20;0.20;;;7.90;99.90;;;;;;5127254;27;20080;-51
2022/01/03 06:44:19;;;;;;;3.35;0.75;;;7.80;99.90;;;;;;5120678;27;20041;-49
2022/01/03 06:47:44;;;;;;;3.22;0.40;;;7.80;99.90;;;;;;5130992;27;20083;-46
2022/01/03 06:51:09;;;;;;;0.70;0.47;;;7.70;99.90;;;;;;5124471;27;20057;-47
2022/01/03 06:54:35;;;;;;;1.38;0.60;;;7.80;99.90;;;;;;5125826;27;20023;-50
2022/01/03 06:58:00;;;;;;;2.78;0.88;;;7.80;99.90;;;;;;5130159;27;20046;-46
2022/01/03 07:01:25;;;;;;;3.65;1.40;;;7.80;99.90;;;;;;5126882;27;20035;-48
2022/01/03 07:04:51;;;;;;;4.22;1.15;;;7.90;99.90;;;;;;5126386;27;20533;-49
2022/01/03 07:08:16;;;;;;;6.50;1.10;;;8.00;99.90;;;;;;5120621;27;20074;-49
2022/01/03 07:11:41;;;;;;;2.25;0.98;;;8.00;99.90;;;;;;5123819;27;20055;-48
2022/01/03 07:21:55;;;;;;;5.78;1.65;;;8.10;99.90;;;;;;5109724;28;20081;-47
2022/01/03 07:25:20;;;;;;;6.18;1.70;;;8.10;99.90;;;;;;5126189;27;20118;-47
2022/01/03 07:28:45;;;;;;;2.92;1.10;;;8.20;99.90;;;;;;5127793;27;20307;-47
2022/01/03 07:32:11;;;;;;;2.58;1.17;;;8.20;99.90;;;;;;5125028;27;20486;-46
2022/01/03 07:35:36;;;;;;;5.38;1.77;;;8.30;99.90;;;;;;5123226;27;20031;-46
2022/01/03 07:39:01;;;;;;;7.85;1.42;;;8.30;99.90;;;;;;5126544;27;20142;-48
2022/01/03 07:42:27;;;;;;;7.18;1.75;;;8.30;99.90;;;;;;5110021;27;20036;-48
2022/01/03 07:45:52;;;;;;;3.83;1.20;;;8.30;99.90;;;;;;5128034;27;20482;-49
2022/01/03 07:49:18;;;;;;;3.88;1.50;;;8.40;99.90;;;;;;5124781;27;20042;-51
2022/01/03 07:52:43;;;;;;;9.60;1.90;;;8.50;99.90;;;;;;5124807;27;20042;-48
2022/01/03 07:56:09;;;;;;;3.55;1.50;;;8.50;99.90;;;;;;5122684;27;20046;-50
2022/01/03 07:59:34;;;;;;;3.05;1.10;;;8.50;99.90;;;;;;5124357;27;20533;-49
2022/01/03 08:02:59;;;;;;;6.90;1.42;;;8.60;99.90;;;;;;5124531;27;20027;-49
2022/01/03 08:06:24;;;;;;;2.42;1.20;;;8.60;99.90;;;;;;5126449;27;20242;-46
2022/01/03 08:09:50;;;;;;;4.18;0.90;;;8.60;99.90;;;;;;5125981;27;20046;-48
2022/01/03 08:13:15;;;;;;;6.82;1.23;;;8.50;99.90;;;;;;5124354;27;20038;-47
2022/01/03 08:16:40;;;;;;;9.00;1.40;;;8.60;99.90;;;;;;5126321;27;20062;-52
2022/01/03 08:19:26;;;;;;;4.00;1.27;;;8.70;99.90;;;;;;5124148;27;20062;-50
2022/01/03 08:21:51;;;;;;;9.77;1.80;;;8.80;99.90;;;;;;5128141;27;20486;-50
2022/01/03 08:24:18;;;;;;;5.10;1.50;;;8.80;99.90;;;;;;5129802;27;20020;-54
2022/01/03 08:26:43;;;;;;;7.43;1.27;;;8.90;99.90;;;;;;5127907;27;20534;-50
2022/01/03 08:29:09;;;;;;;5.25;1.85;;;8.90;99.90;;;;;;5128769;27;20047;-55
2022/01/03 08:31:36;;;;;;;3.42;1.10;;;9.00;99.90;;;;;;5128194;27;20035;-54
2022/01/03 08:34:03;;;;;;;4.78;1.30;;;9.00;99.90;;;;;;5129622;27;20485;-53
2022/01/03 08:36:28;;;;;;;5.18;1.10;;;9.00;99.90;;;;;;5127793;27;20084;-52
2022/01/03 08:38:54;;;;;;;5.97;1.13;;;9.00;99.90;;;;;;5129706;27;20045;-56
2022/01/03 08:41:19;;;;;;;8.43;1.20;;;9.00;99.90;;;;;;5127487;27;20087;-52
2022/01/03 08:43:45;;;;;;;4.38;1.17;;;9.00;99.90;;;;;;5123060;27;20016;-55
2022/01/03 08:46:10;;;;;;;10.52;1.73;;;9.10;99.90;;;;;;5127732;27;20486;-53
2022/01/03 08:48:36;;;;;;;4.10;1.50;;;9.10;99.90;;;;;;5129844;27;20493;-55
2022/01/03 08:51:01;;;;;;;7.95;1.83;;;9.10;99.90;;;;;;5127540;27;20035;-54
2022/01/03 08:53:27;;;;;;;4.85;1.30;;;9.40;99.90;;;;;;5129347;27;20034;-50
2022/01/03 08:55:56;;;;;;;3.10;1.23;;;9.50;99.90;;;;;;5127651;27;20493;-51
2022/01/03 08:58:24;;;;;;;6.88;1.48;;;9.50;99.90;;;;;;5129578;27;20063;-47
2022/01/03 09:00:49;;;;;;;1.58;0.95;;;9.60;99.90;;;;;;5127451;27;20019;-46
2022/01/03 09:03:15;;;;;;;5.18;1.20;;;9.70;99.90;;;;;;5129395;27;20084;-45
2022/01/03 09:05:41;;;;;;;4.07;1.48;;;9.80;99.90;;;;;;5127558;27;20423;-46
2022/01/03 09:08:09;;;;;;;2.88;1.20;;;9.90;99.90;;;;;;5129268;27;20080;-48
2022/01/03 09:10:34;;;;;;;2.70;0.98;;;9.90;99.90;;;;;;5127462;27;20059;-47
2022/01/03 09:13:00;;;;;;;6.00;1.45;;;10.00;99.90;;;;;;5129329;27;20502;-47
2022/01/03 09:15:26;;;;;;;6.85;1.75;;;10.00;99.90;;;;;;5127073;28;20034;-50
2022/01/03 09:17:52;;;;;;;6.63;1.38;;;10.10;99.90;;;;;;5129424;27;20394;-47
2022/01/03 09:20:18;;;;;;;6.93;1.20;;;10.20;99.90;;;;;;5127219;27;20019;-50
2022/01/03 09:22:47;;;;;;;5.22;1.83;;;10.50;99.90;;;;;;5129428;27;20376;-49
2022/01/03 09:30:34;;;;;;;5.43;1.42;;;10.30;99.90;;;;;;5127503;28;20413;-45
2022/01/03 09:33:00;;;;;;;6.65;1.75;;;10.30;99.90;;;;;;5129027;27;20023;-47
2022/01/03 09:35:26;;;;;;;8.18;1.38;;;10.30;99.90;;;;;;5127090;27;20037;-47
2022/01/03 09:37:51;;;;;;;7.10;1.35;;;10.30;99.90;;;;;;5129187;27;20054;-45
2022/01/03 09:40:18;;;;;;;7.55;1.85;;;10.40;99.90;;;;;;5130390;27;20455;-47
2022/01/03 09:42:49;;;;;;;5.03;1.50;;;10.40;99.90;;;;;;5125533;27;20336;-46
2022/01/03 09:45:15;;;;;;;9.75;1.60;;;10.30;99.90;;;;;;5116925;27;20095;-52
2022/01/03 09:47:44;;;;;;;6.22;1.63;;;10.20;99.90;;;;;;5133142;27;20051;-44
2022/01/03 09:50:12;;;;;;;8.30;2.10;;;10.10;99.90;;;;;;5130717;27;20482;-50
2022/01/03 09:52:39;;;;;;;8.98;1.50;;;10.00;99.90;;;;;;5133047;27;20023;-48
2022/01/03 09:55:05;;;;;;;6.90;2.13;;;10.00;99.90;;;;;;5130540;27;20711;-44
2022/01/03 09:57:31;;;;;;;10.10;1.85;;;9.90;99.90;;;;;;5132981;27;20027;-49
2022/01/03 09:59:59;;;;;;;8.40;2.00;;;9.90;99.90;;;;;;5130714;27;20023;-47
2022/01/03 10:02:25;;;;;;;8.70;1.88;;;9.90;99.90;;;;;;5132914;27;20027;-46
2022/01/03 10:04:51;;;;;;;18.35;1.95;;;9.80;99.90;;;;;;5130636;27;20029;-53
2022/01/03 10:07:17;;;;;;;6.30;2.10;;;9.80;99.90;;;;;;5132697;27;20102;-46
2022/01/03 10:09:44;;;;;;;8.95;2.13;;;9.80;99.90;;;;;;5130386;27;20039;-45
2022/01/03 10:12:11;;;;;;;9.55;2.00;;;9.80;99.90;;;;;;5132490;27;20103;-47
2022/01/03 10:14:37;;;;;;;7.75;1.42;;;9.80;99.90;;;;;;5130845;27;20034;-45
2022/01/03 10:17:03;;;;;;;6.85;1.67;;;9.80;99.90;;;;;;5132483;27;20023;-46
2022/01/03 10:19:28;;;;;;;7.20;1.45;;;9.80;99.90;;;;;;5132376;27;20046;-45
2022/01/03 10:21:54;;;;;;;5.80;1.15;;;9.90;99.90;;;;;;5132324;27;20371;-49
2022/01/03 10:24:34;;;;;;;5.85;1.42;;;9.80;99.90;;;;;;5132083;27;20023;-49
2022/01/03 10:26:59;;;;;;;8.40;1.85;;;9.80;99.90;;;;;;5112490;27;20100;-49
2022/01/03 10:29:27;;;;;;;11.73;1.77;;;9.80;99.90;;;;;;5132171;27;20031;-45
2022/01/03 10:31:55;;;;;;;9.18;1.50;;;9.80;99.90;;;;;;5130352;27;20403;-48
2022/01/03 10:34:23;;;;;;;7.75;1.83;;;9.80;99.90;;;;;;5132024;27;20398;-46
2022/01/03 10:36:50;;;;;;;9.00;1.90;;;9.70;99.90;;;;;;5130112;27;20031;-44
2022/01/03 10:39:31;;;;;;;7.95;1.58;;;9.70;99.90;;;;;;5131840;27;20107;-45
2022/01/03 10:42:18;;;;;;;7.75;1.55;;;9.80;99.90;;;;;;5109818;27;20325;-49
2022/01/03 10:44:45;;;;;;;6.25;1.30;;;9.90;99.90;;;;;;5129988;27;20104;-46
2022/01/03 10:47:14;;;;;;;6.85;1.63;;;9.90;99.90;;;;;;5131883;27;20023;-48
2022/01/03 10:49:41;;;;;;;8.55;2.45;;;10.00;99.90;;;;;;5129944;27;20047;-46
2022/01/03 10:52:11;;;;;;;8.60;1.90;;;10.10;99.90;;;;;;5131067;27;20432;-47
2022/01/03 10:54:36;;;;;;;9.63;1.85;;;10.30;99.90;;;;;;5129573;27;20486;-50
2022/01/03 10:57:02;;;;;;;10.40;2.42;;;10.30;99.90;;;;;;5131756;27;20112;-51
2022/01/03 10:59:30;;;;;;;7.95;2.05;;;10.30;99.90;;;;;;5131403;27;20038;-51
2022/01/03 11:02:02;;;;;;;14.18;2.35;;;10.30;99.90;;;;;;5131666;27;20069;-52
2022/01/03 11:04:57;;;;;;;10.23;2.53;;;10.20;99.90;;;;;;5131389;27;20035;-48
2022/01/03 11:13:07;;;;;;;8.50;2.25;;;10.00;99.90;;;;;;5131421;27;20068;-49
2022/01/03 11:15:32;;;;;;;7.95;2.38;;;10.00;99.90;;;;;;5129251;27;20047;-48
2022/01/03 11:18:17;;;;;;;8.68;1.70;;;10.20;99.90;;;;;;5131162;27;20122;-47
2022/01/03 11:20:49;;;;;;;12.65;3.38;;;10.30;99.90;;;;;;5119365;27;20447;-45
2022/01/03 11:23:22;;;;;;;11.95;3.38;;;10.30;99.90;;;;;;5110727;28;20031;-44
2022/01/03 11:25:49;;;;;;;12.15;3.08;;;10.20;99.90;;;;;;5128695;27;20019;-49
2022/01/03 11:28:15;;;;;;;6.53;2.10;;;10.20;99.90;;;;;;5130758;27;20078;-45
2022/01/03 11:30:43;;;;;;;10.02;2.50;;;10.20;99.90;;;;;;5129224;27;20027;-50
2022/01/03 11:33:10;;;;;;;7.20;2.42;;;10.10;99.90;;;;;;5130629;27;20393;-51
2022/01/03 11:35:36;;;;;;;9.60;2.80;;;10.10;99.90;;;;;;5128944;27;20506;-53
2022/01/03 11:38:02;;;;;;;11.20;3.38;;;10.20;99.90;;;;;;5130781;27;20172;-49
2022/01/03 11:40:28;;;;;;;10.90;2.58;;;10.40;99.90;;;;;;5128689;27;20122;-45
2022/01/03 11:42:53;;;;;;;11.93;3.15;;;10.40;99.90;;;;;;5127387;27;20106;-47
2022/01/03 11:45:19;;;;;;;11.02;2.78;;;10.50;99.90;;;;;;5128626;27;20542;-48
2022/01/03 11:47:45;;;;;;;9.82;2.65;;;10.60;99.90;;;;;;5130714;27;20023;-47
2022/01/03 11:50:11;;;;;;;7.18;2.53;;;10.50;99.90;;;;;;5128392;27;20039;-51
2022/01/03 11:52:42;;;;;;;14.27;3.03;;;10.50;99.90;;;;;;5130810;27;20378;-47
2022/01/03 11:55:09;;;;;;;7.40;2.38;;;10.50;99.90;;;;;;5113268;27;20591;-45
2022/01/03 12:06:03;;;;;;;9.60;3.05;;;10.60;99.90;;;;;;5121095;27;20147;-45
2022/01/03 12:08:34;;;;;;;12.93;3.30;;;10.60;99.90;;;;;;5130182;27;20080;-47
2022/01/03 12:11:15;;;;;;;11.07;2.80;;;10.60;99.90;;;;;;5128253;27;20127;-47
2022/01/03 12:13:56;;;;;;;8.43;2.90;;;10.50;99.90;;;;;;5109880;28;20122;-49
2022/01/03 12:16:50;;;;;;;10.05;3.10;;;10.50;99.90;;;;;;5123823;27;20030;-49
2022/01/03 12:19:24;;;;;;;8.40;2.90;;;10.50;99.90;;;;;;5109547;28;20201;-47
2022/01/03 12:21:50;;;;;;;7.57;2.60;;;10.70;99.90;;;;;;5127578;27;20035;-45
2022/01/03 12:24:27;;;;;;;11.88;2.78;;;10.90;99.90;;;;;;5129786;27;20030;-48
2022/01/03 12:27:14;;;;;;;9.05;3.25;;;11.10;99.90;;;;;;5128149;27;20039;-47
2022/01/03 12:32:29;;;;;;;11.45;3.75;;;11.40;99.90;;;;;;5109151;28;20391;-47
2022/01/03 12:35:10;;;;;;;10.88;3.97;;;11.50;99.90;;;;;;5090743;28;20020;-47
2022/01/03 12:37:42;;;;;;;7.55;2.70;;;11.60;99.90;;;;;;5109342;28;20023;-47
2022/01/03 12:40:09;;;;;;;16.45;2.95;;;11.70;99.90;;;;;;5086729;28;20113;-46
2022/01/03 12:42:48;;;;;;;11.18;3.42;;;11.80;99.90;;;;;;5095191;28;20038;-67
2022/01/03 12:45:25;;;;;;;8.10;2.20;;;11.70;99.90;;;;;;5086917;28;20024;-67
2022/01/03 12:47:52;;;;;;;9.48;2.70;;;11.60;99.90;;;;;;5108353;28;20508;-67
2022/01/03 12:50:22;;;;;;;8.27;2.83;;;11.40;99.90;;;;;;5093742;28;20061;-67
2022/01/03 12:52:48;;;;;;;11.98;2.90;;;11.30;99.90;;;;;;5102978;28;20065;-48
2022/01/03 12:55:41;;;;;;;13.20;3.10;;;11.20;99.90;;;;;;5087523;28;20123;-47
2022/01/03 12:58:18;;;;;;;11.27;3.10;;;11.10;99.90;;;;;;5082829;28;20495;-49
2022/01/03 13:00:48;;;;;;;12.02;3.08;;;11.10;99.90;;;;;;5085827;28;20081;-45
2022/01/03 13:03:25;;;;;;;14.15;3.08;;;11.00;99.90;;;;;;5087919;28;20581;-48
2022/01/03 13:06:26;;;;;;;14.70;2.50;;;10.90;99.90;;;;;;5105738;28;20032;-46
2022/01/03 13:08:54;;;;;;;10.10;3.15;;;10.90;99.90;;;;;;5107960;28;20090;-47
2022/01/03 13:11:31;;;;;;;11.38;2.72;;;10.90;99.90;;;;;;5091148;28;20055;-47
2022/01/03 13:14:18;;;;;;;7.75;2.70;;;10.90;99.90;;;;;;5108912;28;20028;-51
2022/01/03 13:16:56;;;;;;;9.93;3.03;;;10.90;99.90;;;;;;5089768;28;20062;-46
2022/01/03 13:19:26;;;;;;;8.50;2.53;;;10.90;99.90;;;;;;5091308;28;20042;-48
2022/01/03 13:21:57;;;;;;;7.05;2.65;;;10.90;99.90;;;;;;5089766;28;20028;-45
2022/01/03 13:24:31;;;;;;;10.55;2.13;;;10.80;99.90;;;;;;5091368;28;20040;-45
2022/01/03 13:27:03;;;;;;;9.88;2.67;;;10.80;99.90;;;;;;5106872;28;20076;-49
2022/01/03 13:29:50;;;;;;;8.45;1.85;;;10.80;99.90;;;;;;5101333;28;20035;-47
2022/01/03 13:32:26;;;;;;;10.93;2.50;;;10.80;99.90;;;;;;5091088;28;20407;-47
2022/01/03 13:34:53;;;;;;;8.38;2.42;;;10.70;99.90;;;;;;5089835;28;20697;-47
2022/01/03 13:37:23;;;;;;;8.15;2.30;;;10.70;99.90;;;;;;5111097;28;20024;-46
2022/01/03 13:39:50;;;;;;;4.18;2.13;;;10.70;99.90;;;;;;5098973;28;20035;-46
2022/01/03 13:42:27;;;;;;;12.25;2.75;;;10.60;99.90;;;;;;5087119;28;20023;-47
2022/01/03 13:50:07;;;;;;;13.10;3.10;;;10.60;99.90;;;;;;5089155;28;20064;-47
2022/01/03 13:52:44;;;;;;;9.35;2.70;;;10.60;99.90;;;;;;5111052;28;20027;-47
2022/01/03 13:55:26;;;;;;;14.90;2.55;;;10.50;99.90;;;;;;5101860;28;20092;-49
2022/01/03 13:58:05;;;;;;;12.73;2.78;;;10.50;99.90;;;;;;5090569;28;20235;-46
2022/01/03 14:00:34;;;;;;;14.77;6.00;;;10.50;99.90;;;;;;5093421;28;20036;-48
2022/01/03 14:03:01;;;;;;;10.18;3.38;;;10.40;99.90;;;;;;5111136;28;20062;-46
2022/01/03 14:05:26;;;;;;;9.95;2.95;;;10.40;99.90;;;;;;5089476;28;20032;-50
2022/01/03 14:07:59;;;;;;;10.80;2.92;;;10.40;99.90;;;;;;5110419;28;20032;-48
2022/01/03 14:10:41;;;;;;;8.95;2.15;;;10.40;99.90;;;;;;5103120;28;20060;-50
2022/01/03 14:13:08;;;;;;;8.70;2.20;;;10.50;99.90;;;;;;5090963;28;20039;-51
2022/01/03 14:15:33;;;;;;;6.57;1.88;;;10.50;99.90;;;;;;5092539;28;20028;-47
2022/01/03 14:17:59;;;;;;;8.00;1.88;;;10.40;99.90;;;;;;5109707;28;20039;-50
2022/01/03 14:20:25;;;;;;;9.13;2.35;;;10.40;99.90;;;;;;5088986;28;20040;-64
2022/01/03 14:22:50;;;;;;;8.57;2.30;;;10.40;99.90;;;;;;5109953;28;20550;-64
2022/01/03 14:25:17;;;;;;;8.02;2.10;;;10.30;99.90;;;;;;5087864;28;20032;-63
2022/01/03 14:27:48;;;;;;;8.32;2.15;;;10.20;99.90;;;;;;5102580;28;20519;-64
2022/01/03 14:30:23;;;;;;;6.40;1.80;;;10.20;99.90;;;;;;5101707;28;20538;-64
2022/01/03 14:32:53;;;;;;;8.57;1.98;;;10.20;99.90;;;;;;5090043;28;20437;-63
2022/01/03 14:35:41;;;;;;;6.45;1.98;;;10.10;99.90;;;;;;5102680;28;20204;-63
2022/01/03 14:38:12;;;;;;;7.20;1.73;;;10.10;99.90;;;;;;5086533;28;20028;-62
2022/01/03 14:40:45;;;;;;;7.28;2.17;;;10.10;99.90;;;;;;5110451;28;20043;-63
2022/01/03 14:43:18;;;;;;;8.70;1.92;;;10.00;99.90;;;;;;5096921;28;20046;-62
2022/01/03 14:45:43;;;;;;;10.27;1.95;;;10.00;99.90;;;;;;5089842;28;20036;-63
2022/01/03 14:48:11;;;;;;;7.25;2.03;;;9.90;99.90;;;;;;5107649;28;20034;-65
2022/01/03 14:50:37;;;;;;;7.47;1.83;;;9.90;99.90;;;;;;5089986;28;20153;-62
2022/01/03 14:53:04;;;;;;;9.10;1.77;;;9.90;99.90;;;;;;5107648;28;20032;-62
2022/01/03 14:55:36;;;;;;;10.77;2.47;;;9.90;99.90;;;;;;5090120;28;20032;-62
2022/01/03 14:58:04;;;;;;;6.45;1.70;;;9.80;99.90;;;;;;5087576;28;20093;-63
2022/01/03 15:00:30;;;;;;;6.88;1.90;;;9.80;99.90;;;;;;5109927;28;20054;-63
2022/01/03 15:02:56;;;;;;;11.27;2.22;;;9.80;99.90;;;;;;5096073;28;20039;-63
2022/01/03 15:05:23;;;;;;;10.23;2.25;;;9.70;99.90;;;;;;5090287;28;20032;-63
2022/01/03 15:07:48;;;;;;;11.65;2.38;;;9.60;99.90;;;;;;5107600;28;20051;-63
2022/01/03 15:10:16;;;;;;;7.03;2.28;;;9.50;99.90;;;;;;5109882;28;20089;-63
2022/01/03 15:12:42;;;;;;;8.75;2.22;;;9.40;99.90;;;;;;5093318;28;20428;-63
2022/01/03 15:15:09;;;;;;;9.77;2.03;;;9.40;99.90;;;;;;5109776;28;20221;-63
2022/01/03 15:17:35;;;;;;;8.35;2.22;;;9.50;99.90;;;;;;5092588;28;20027;-63
2022/01/03 15:20:03;;;;;;;9.25;1.92;;;9.50;99.90;;;;;;5110150;28;20024;-63
2022/01/03 15:22:28;;;;;;;6.78;2.67;;;9.50;99.90;;;;;;5091225;28;20239;-65
2022/01/03 15:24:54;;;;;;;5.07;2.25;;;9.50;99.90;;;;;;5109304;28;20023;-62
2022/01/03 15:27:20;;;;;;;7.05;2.00;;;9.50;99.90;;;;;;5088649;28;20036;-67
2022/01/03 15:29:47;;;;;;;5.25;1.95;;;9.60;99.90;;;;;;5089654;28;20111;-64
2022/01/03 15:32:14;;;;;;;8.85;1.98;;;9.60;99.90;;;;;;5107032;28;20054;-66
2022/01/03 15:34:39;;;;;;;7.55;1.75;;;9.60;99.90;;;;;;5109815;28;20119;-66
2022/01/03 15:37:05;;;;;;;3.53;1.50;;;9.60;99.90;;;;;;5087422;28;20103;-64
2022/01/03 15:39:32;;;;;;;6.95;2.17;;;9.50;99.90;;;;;;5109371;28;20028;-65
2022/01/03 15:41:57;;;;;;;5.13;1.60;;;9.50;99.90;;;;;;5092587;28;20030;-49
2022/01/03 15:44:23;;;;;;;3.58;1.70;;;9.60;99.90;;;;;;5083484;28;20350;-67
2022/01/03 15:46:48;;;;;;;7.13;1.90;;;9.50;99.90;;;;;;5088960;28;20020;-66